createdAt,value
2018-07-25T06:19:08.295Z,9.30
2018-07-25T06:20:09.013Z,11.20
2018-07-25T06:21:09.666Z,10.30
2018-07-25T06:22:10.338Z,9.80
2018-07-25T06:23:11.065Z,10.10
2018-07-25T06:24:13.116Z,9.50
2018-07-25T06:26:14.055Z,9.50
2018-07-25T06:27:14.728Z,9.60
2018-07-25T06:28:15.377Z,9.10
2018-07-25T06:29:16.037Z,9.50
2018-07-25T06:30:16.691Z,9.30
2018-07-25T06:31:17.393Z,9.10
2018-07-25T06:32:18.063Z,8.90
2018-07-25T06:33:18.746Z,11.40
2018-07-25T06:34:19.398Z,9.90
2018-07-25T06:35:20.052Z,9.20
2018-07-25T06:36:20.727Z,9.70
2018-07-25T06:37:21.451Z,11.30
2018-07-25T06:38:22.124Z,9.00
2018-07-25T06:39:23.010Z,9.30
2018-07-25T06:40:23.711Z,9.70
2018-07-25T06:41:24.373Z,9.40
2018-07-25T06:42:25.022Z,9.80
2018-07-25T06:43:25.700Z,9.20
2018-07-25T06:44:27.200Z,9.30
2018-07-25T06:45:27.845Z,9.20
2018-07-25T06:46:28.540Z,10.20
2018-07-25T06:47:29.247Z,13.00
2018-07-25T06:48:30.138Z,9.80
2018-07-25T06:49:30.839Z,11.20
2018-07-25T06:51:31.786Z,9.10
2018-07-25T06:53:32.763Z,9.50
2018-07-25T06:54:33.406Z,8.90
2018-07-25T06:55:34.054Z,8.80
2018-07-25T06:56:34.740Z,9.50
2018-07-25T06:57:35.474Z,9.20
2018-07-25T06:58:36.114Z,10.10
2018-07-25T06:59:36.786Z,9.60
2018-07-25T07:00:37.457Z,9.40
2018-07-25T07:01:38.092Z,9.40
2018-07-25T07:02:38.753Z,8.60
2018-07-25T07:03:39.443Z,8.50
2018-07-25T07:04:40.089Z,8.90
2018-07-25T07:05:40.714Z,9.30
2018-07-25T07:06:41.451Z,9.20
2018-07-25T07:07:42.162Z,9.20
2018-07-25T07:08:42.903Z,8.80
2018-07-25T07:09:43.587Z,8.40
2018-07-25T07:10:44.306Z,9.20
2018-07-25T07:11:44.946Z,8.80
2018-07-25T07:12:45.676Z,9.20
2018-07-25T07:13:46.387Z,9.00
2018-07-25T07:15:47.359Z,8.40
2018-07-25T07:16:48.084Z,8.40
2018-07-25T07:18:49.000Z,8.40
2018-07-25T07:19:49.704Z,8.40
2018-07-25T07:20:50.365Z,8.00
2018-07-25T07:21:51.028Z,8.30
2018-07-25T07:22:51.779Z,8.10
2018-07-25T07:23:52.727Z,8.50
2018-07-25T07:24:53.422Z,8.10
2018-07-25T07:25:54.676Z,8.20
2018-07-25T07:26:55.403Z,8.20
2018-07-25T07:27:56.046Z,8.40
2018-07-25T07:28:56.722Z,8.30
2018-07-25T07:29:57.444Z,7.70
2018-07-25T07:30:58.072Z,8.20
2018-07-25T07:31:58.823Z,8.50
2018-07-25T07:32:59.472Z,8.40
2018-07-25T07:34:00.133Z,7.80
2018-07-25T07:35:01.746Z,7.60
2018-07-25T07:36:02.458Z,7.60
2018-07-25T07:37:03.107Z,7.10
2018-07-25T07:38:03.778Z,7.30
2018-07-25T07:39:04.430Z,7.40
2018-07-25T07:40:05.094Z,7.20
2018-07-25T07:41:05.815Z,7.70
2018-07-25T07:42:06.546Z,8.60
2018-07-25T07:43:07.223Z,7.80
2018-07-25T07:44:07.937Z,7.70
2018-07-25T07:46:08.897Z,7.40
2018-07-25T07:47:09.924Z,7.70
2018-07-25T07:48:10.655Z,6.90
2018-07-25T07:49:11.320Z,7.70
2018-07-25T07:50:12.513Z,7.30
2018-07-25T07:51:13.285Z,7.30
2018-07-25T07:52:13.994Z,7.50
2018-07-25T07:53:14.704Z,7.40
2018-07-25T07:54:15.411Z,7.60
2018-07-25T07:55:16.079Z,6.90
2018-07-25T07:56:16.746Z,7.20
2018-07-25T07:57:17.456Z,7.20
2018-07-25T07:58:18.142Z,7.30
2018-07-25T07:59:18.939Z,7.00
2018-07-25T08:00:19.617Z,7.40
2018-07-25T08:01:20.295Z,7.30
2018-07-25T08:02:20.979Z,10.00
2018-07-25T08:03:21.719Z,7.20
2018-07-25T08:04:22.423Z,6.80
2018-07-25T08:05:23.099Z,7.90
2018-07-25T08:06:23.764Z,7.20
2018-07-25T08:07:24.439Z,6.60
2018-07-25T08:08:25.114Z,6.80
2018-07-25T08:09:25.848Z,6.60
2018-07-25T08:10:26.717Z,7.40
2018-07-25T08:11:27.479Z,7.80
2018-07-25T08:12:28.153Z,6.50
2018-07-25T08:13:29.036Z,6.80
2018-07-25T08:14:50.037Z,7.20
2018-07-25T08:15:50.740Z,7.20
2018-07-25T08:16:51.427Z,7.20
2018-07-25T08:17:52.172Z,6.60
2018-07-25T08:18:52.933Z,6.50
2018-07-25T08:19:53.675Z,6.80
2018-07-25T08:21:54.663Z,6.60
2018-07-25T08:22:55.326Z,6.60
2018-07-25T08:23:56.057Z,7.10
2018-07-25T08:24:56.775Z,6.70
2018-07-25T08:25:57.750Z,6.90
2018-07-25T08:26:58.553Z,6.80
2018-07-25T08:28:01.446Z,7.10
2018-07-25T08:29:02.155Z,6.50
2018-07-25T08:30:02.828Z,6.90
2018-07-25T08:31:03.564Z,6.70
2018-07-25T08:32:04.231Z,6.90
2018-07-25T08:33:05.097Z,6.60
2018-07-25T08:34:05.949Z,6.20
2018-07-25T08:35:07.233Z,6.90
2018-07-25T08:36:08.279Z,6.40
2018-07-25T08:37:09.006Z,6.30
2018-07-25T08:38:09.719Z,7.10
2018-07-25T08:39:11.266Z,6.80
2018-07-25T08:40:12.117Z,6.10
2018-07-25T08:41:14.244Z,5.90
2018-07-25T08:42:15.111Z,7.60
2018-07-25T08:43:16.052Z,5.90
2018-07-25T08:44:16.823Z,6.40
2018-07-25T08:45:17.653Z,6.30
2018-07-25T08:46:19.823Z,6.00
2018-07-25T08:48:22.046Z,6.00
2018-07-25T08:49:22.865Z,6.50
2018-07-25T08:50:23.798Z,6.30
2018-07-25T08:51:24.491Z,6.10
2018-07-25T08:52:26.492Z,6.10
2018-07-25T08:53:29.077Z,6.10
2018-07-25T08:54:30.443Z,6.30
2018-07-25T08:55:31.908Z,6.00
2018-07-25T08:56:33.803Z,6.10
2018-07-25T08:57:34.671Z,5.80
2018-07-25T08:58:37.553Z,5.80
2018-07-25T08:59:38.547Z,5.80
2018-07-25T09:00:39.857Z,7.20
2018-07-25T09:01:40.770Z,5.80
2018-07-25T09:02:41.419Z,6.10
2018-07-25T09:03:42.088Z,6.30
2018-07-25T09:04:42.831Z,5.90
2018-07-25T09:05:43.478Z,5.90
2018-07-25T09:06:44.164Z,6.10
2018-07-25T09:07:44.833Z,6.00
2018-07-25T09:08:45.482Z,6.20
2018-07-25T09:09:46.227Z,6.30
2018-07-25T09:10:46.873Z,6.20
2018-07-25T09:11:47.570Z,5.70
2018-07-25T09:12:49.221Z,6.10
2018-07-25T09:13:49.845Z,6.20
2018-07-25T09:14:50.530Z,6.10
2018-07-25T09:15:52.130Z,6.00
2018-07-25T09:16:52.955Z,6.10
2018-07-25T09:17:53.710Z,6.00
2018-07-25T09:18:54.470Z,5.90
2018-07-25T09:19:55.870Z,8.30
2018-07-25T09:20:56.531Z,5.70
2018-07-25T09:21:57.252Z,5.80
2018-07-25T09:22:57.909Z,6.10
2018-07-25T09:23:58.564Z,6.00
2018-07-25T09:24:59.277Z,7.00
2018-07-25T09:27:00.229Z,6.10
2018-07-25T09:28:00.979Z,6.40
2018-07-25T09:29:01.723Z,5.90
2018-07-25T09:30:02.497Z,5.70
2018-07-25T09:31:04.590Z,6.20
2018-07-25T09:32:05.396Z,5.90
2018-07-25T09:33:06.150Z,6.20
2018-07-25T09:34:06.866Z,5.90
2018-07-25T09:35:07.585Z,6.50
2018-07-25T09:36:11.137Z,6.20
2018-07-25T09:37:13.386Z,6.20
2018-07-25T09:38:14.052Z,6.30
2018-07-25T09:39:14.795Z,6.40
2018-07-25T09:40:15.521Z,6.30
2018-07-25T09:41:16.268Z,6.00
2018-07-25T09:42:17.068Z,6.70
2018-07-25T09:43:17.777Z,6.30
2018-07-25T09:45:18.797Z,6.20
2018-07-25T09:46:19.567Z,6.30
2018-07-25T09:47:20.394Z,6.50
2018-07-25T09:48:21.136Z,6.60
2018-07-25T09:49:21.843Z,6.50
2018-07-25T09:50:22.675Z,6.00
2018-07-25T09:51:23.348Z,6.40
2018-07-25T09:52:24.151Z,6.10
2018-07-25T09:53:25.472Z,5.90
2018-07-25T09:55:26.445Z,6.80
2018-07-25T09:56:27.131Z,5.50
2018-07-25T09:57:27.865Z,6.90
2018-07-25T09:58:28.580Z,5.90
2018-07-25T09:59:29.325Z,5.60
2018-07-25T10:00:30.526Z,5.30
2018-07-25T10:01:31.282Z,5.80
2018-07-25T10:02:31.960Z,5.50
2018-07-25T10:03:32.736Z,5.40
2018-07-25T10:04:33.396Z,5.30
2018-07-25T10:05:34.073Z,5.80
2018-07-25T10:06:34.794Z,5.10
2018-07-25T10:07:35.540Z,6.30
2018-07-25T10:08:36.249Z,5.50
2018-07-25T10:09:36.932Z,5.30
2018-07-25T10:10:37.648Z,6.50
2018-07-25T10:11:38.428Z,5.20
2018-07-25T10:12:39.212Z,4.90
2018-07-25T10:13:39.967Z,6.70
2018-07-25T10:14:40.608Z,5.30
2018-07-25T10:15:41.281Z,5.40
2018-07-25T10:16:42.017Z,6.10
2018-07-25T10:17:42.817Z,5.60
2018-07-25T10:18:43.503Z,5.40
2018-07-25T10:19:44.265Z,5.30
2018-07-25T10:20:45.075Z,6.90
2018-07-25T10:21:45.777Z,5.80
2018-07-25T10:22:46.497Z,5.70
2018-07-25T10:23:47.392Z,6.20
2018-07-25T10:24:48.189Z,5.80
2018-07-25T10:26:49.644Z,5.60
2018-07-25T10:27:50.340Z,5.50
2018-07-25T10:28:52.993Z,5.30
2018-07-25T10:29:54.045Z,5.30
2018-07-25T10:30:54.778Z,5.40
2018-07-25T10:31:57.889Z,5.00
2018-07-25T10:32:58.619Z,5.30
2018-07-25T10:33:59.393Z,5.20
2018-07-25T10:35:00.111Z,5.40
2018-07-25T10:36:00.900Z,5.50
2018-07-25T10:37:02.347Z,5.80
2018-07-25T10:38:03.022Z,5.20
2018-07-25T10:39:03.771Z,5.20
2018-07-25T10:40:04.522Z,5.30
2018-07-25T10:41:06.174Z,5.30
2018-07-25T10:42:07.312Z,5.50
2018-07-25T10:43:07.989Z,5.50
2018-07-25T10:44:09.648Z,7.20
2018-07-25T10:45:10.491Z,6.40
2018-07-25T10:46:11.232Z,5.00
2018-07-25T10:47:11.977Z,5.20
2018-07-25T10:48:16.052Z,5.10
2018-07-25T10:49:17.066Z,5.10
2018-07-25T10:50:17.790Z,5.20
2018-07-25T10:51:56.459Z,5.30
2018-07-25T10:52:57.181Z,5.30
2018-07-25T10:53:57.919Z,5.00
2018-07-25T10:54:58.683Z,5.10
2018-07-25T10:55:59.424Z,6.30
2018-07-25T10:57:00.163Z,5.80
2018-07-25T10:58:00.878Z,5.40
2018-07-25T10:59:01.559Z,5.50
2018-07-25T11:00:02.232Z,6.00
2018-07-25T11:01:02.987Z,5.40
2018-07-25T11:02:03.740Z,5.40
2018-07-25T11:03:04.498Z,5.40
2018-07-25T11:04:05.240Z,5.20
2018-07-25T11:05:06.108Z,4.90
2018-07-25T11:06:06.842Z,5.30
2018-07-25T11:07:07.903Z,5.20
2018-07-25T11:08:08.685Z,5.40
2018-07-25T11:09:09.423Z,5.60
2018-07-25T11:10:10.239Z,5.10
2018-07-25T11:11:11.002Z,5.70
2018-07-25T11:12:11.686Z,5.00
2018-07-25T11:13:12.473Z,5.00
2018-07-25T11:14:13.193Z,5.30
2018-07-25T11:15:14.726Z,5.50
2018-07-25T11:16:15.440Z,7.20
2018-07-25T11:17:16.107Z,4.90
2018-07-25T11:18:16.844Z,5.30
2018-07-25T11:19:17.650Z,5.20
2018-07-25T11:20:18.530Z,5.90
2018-07-25T11:21:19.220Z,5.00
2018-07-25T11:22:20.154Z,4.80
2018-07-25T11:23:20.872Z,5.00
2018-07-25T11:24:21.550Z,5.00
2018-07-25T11:25:22.319Z,5.30
2018-07-25T11:26:31.846Z,7.00
2018-07-25T11:27:38.402Z,5.00
2018-07-25T11:28:39.107Z,4.90
2018-07-25T11:29:39.839Z,4.50
2018-07-25T11:30:40.541Z,4.50
2018-07-25T11:31:41.178Z,5.00
2018-07-25T11:32:41.975Z,5.10
2018-07-25T11:33:42.663Z,4.90
2018-07-25T11:34:47.074Z,4.60
2018-07-25T11:35:48.832Z,4.60
2018-07-25T11:36:49.657Z,5.10
2018-07-25T11:37:50.396Z,5.00
2018-07-25T11:38:51.104Z,4.80
2018-07-25T11:39:51.758Z,4.60
2018-07-25T11:40:53.371Z,4.80
2018-07-25T11:41:54.312Z,4.80
2018-07-25T11:42:55.023Z,6.00
2018-07-25T11:43:55.860Z,5.00
2018-07-25T11:44:56.570Z,5.00
2018-07-25T11:45:57.708Z,4.80
2018-07-25T11:46:58.587Z,5.00
2018-07-25T11:47:59.284Z,4.80
2018-07-25T11:48:59.970Z,4.90
2018-07-25T11:50:00.695Z,4.80
2018-07-25T11:51:02.341Z,4.60
2018-07-25T11:52:03.184Z,4.60
2018-07-25T11:53:03.898Z,4.90
2018-07-25T11:54:04.553Z,5.00
2018-07-25T11:55:05.210Z,4.90
2018-07-25T11:56:05.954Z,4.70
2018-07-25T11:57:06.962Z,4.90
2018-07-25T11:58:07.667Z,4.90
2018-07-25T11:59:08.544Z,4.70
2018-07-25T12:00:09.347Z,5.10
2018-07-25T12:01:10.171Z,4.90
2018-07-25T12:02:10.801Z,4.90
2018-07-25T12:03:12.975Z,4.80
2018-07-25T12:04:13.649Z,4.90
2018-07-25T12:05:14.622Z,5.90
2018-07-25T12:06:15.389Z,5.20
2018-07-25T12:07:16.432Z,5.30
2018-07-25T12:08:17.903Z,5.40
2018-07-25T12:09:18.646Z,4.90
2018-07-25T12:11:19.747Z,4.90
2018-07-25T12:12:20.504Z,4.80
2018-07-25T12:13:24.102Z,4.80
2018-07-25T12:14:25.029Z,4.80
2018-07-25T12:15:25.786Z,5.30
2018-07-25T12:16:26.459Z,5.00
2018-07-25T12:17:27.298Z,5.00
2018-07-25T12:18:28.026Z,5.60
2018-07-25T12:19:28.830Z,4.90
2018-07-25T12:20:29.613Z,5.10
2018-07-25T12:21:30.453Z,5.00
2018-07-25T12:22:31.155Z,5.70
2018-07-25T12:23:31.952Z,5.30
2018-07-25T12:24:32.741Z,5.40
2018-07-25T12:25:33.508Z,5.40
2018-07-25T12:26:34.334Z,5.30
2018-07-25T12:27:35.052Z,5.30
2018-07-25T12:28:35.827Z,5.80
2018-07-25T12:29:36.574Z,5.90
2018-07-25T12:30:37.303Z,5.70
2018-07-25T12:31:38.099Z,10.40
2018-07-25T12:32:38.837Z,5.20
2018-07-25T12:33:39.553Z,4.90
2018-07-25T12:34:40.302Z,5.30
2018-07-25T12:35:41.087Z,5.10
2018-07-25T12:36:41.946Z,4.60
2018-07-25T12:37:42.652Z,4.90
2018-07-25T12:38:43.376Z,4.90
2018-07-25T12:39:45.266Z,4.40
2018-07-25T12:40:46.125Z,4.60
2018-07-25T12:41:46.901Z,4.10
2018-07-25T12:42:47.663Z,5.40
2018-07-25T12:43:48.426Z,4.60
2018-07-25T12:44:49.081Z,4.50
2018-07-25T12:45:49.818Z,4.40
2018-07-25T12:46:50.559Z,4.30
2018-07-25T12:47:52.270Z,4.70
2018-07-25T12:48:52.999Z,4.70
2018-07-25T12:49:53.732Z,4.80
2018-07-25T12:50:54.577Z,4.80
2018-07-25T12:51:55.337Z,6.30
2018-07-25T12:52:56.131Z,5.60
2018-07-25T12:53:56.924Z,4.80
2018-07-25T12:54:57.619Z,4.70
2018-07-25T12:55:58.333Z,6.00
2018-07-25T12:56:59.087Z,4.80
2018-07-25T12:57:59.824Z,4.60
2018-07-25T12:59:00.563Z,5.30
2018-07-25T13:00:01.385Z,4.00
2018-07-25T13:01:02.053Z,4.80
2018-07-25T13:02:02.843Z,4.40
2018-07-25T13:03:05.745Z,4.50
2018-07-25T13:04:06.547Z,4.60
2018-07-25T13:05:08.434Z,4.40
2018-07-25T13:06:09.201Z,4.70
2018-07-25T13:07:09.960Z,6.00
2018-07-25T13:08:10.739Z,4.40
2018-07-25T13:09:11.518Z,4.70
2018-07-25T13:10:12.394Z,6.40
2018-07-25T13:11:13.193Z,5.40
2018-07-25T13:12:13.938Z,4.20
2018-07-25T13:13:14.655Z,4.80
2018-07-25T13:14:15.913Z,4.50
2018-07-25T13:15:16.772Z,4.60
2018-07-25T13:16:17.744Z,4.80
2018-07-25T13:17:19.902Z,4.60
2018-07-25T13:18:20.785Z,4.40
2018-07-25T13:19:21.513Z,4.70
2018-07-25T13:20:22.253Z,4.70
2018-07-25T13:21:22.994Z,4.60
2018-07-25T13:22:24.224Z,5.10
2018-07-25T13:23:24.947Z,5.10
2018-07-25T13:24:25.929Z,4.90
2018-07-25T13:25:26.671Z,4.90
2018-07-25T13:26:27.413Z,4.70
2018-07-25T13:27:28.162Z,4.20
2018-07-25T13:28:29.242Z,4.40
2018-07-25T13:29:30.031Z,4.50
2018-07-25T13:30:30.804Z,4.50
2018-07-25T13:31:31.550Z,4.10
2018-07-25T13:32:33.010Z,4.40
2018-07-25T13:33:33.775Z,4.50
2018-07-25T13:34:34.547Z,4.10
2018-07-25T13:35:35.306Z,5.30
2018-07-25T13:36:36.082Z,4.30
2018-07-25T13:37:36.930Z,4.50
2018-07-25T13:38:39.309Z,5.80
2018-07-25T13:39:42.304Z,5.30
2018-07-25T13:40:43.057Z,4.70
2018-07-25T13:41:43.825Z,4.50
2018-07-25T13:42:45.252Z,4.80
2018-07-25T13:43:45.988Z,5.50
2018-07-25T13:44:46.751Z,9.20
2018-07-25T13:45:47.758Z,5.00
2018-07-25T13:46:48.398Z,8.30
2018-07-25T13:47:49.101Z,8.00
2018-07-25T13:48:49.850Z,9.90
2018-07-25T13:49:50.854Z,7.00
2018-07-25T13:50:51.600Z,6.70
2018-07-25T13:51:52.481Z,6.80
2018-07-25T13:52:53.225Z,4.90
2018-07-25T13:53:53.955Z,6.00
2018-07-25T13:54:54.682Z,3.80
2018-07-25T13:55:55.389Z,4.80
2018-07-25T13:56:56.254Z,4.20
2018-07-25T13:57:57.023Z,4.10
2018-07-25T13:58:57.763Z,5.90
2018-07-25T14:00:00.114Z,3.70
2018-07-25T14:01:00.809Z,4.80
2018-07-25T14:02:01.533Z,3.70
2018-07-25T14:03:02.272Z,3.70
2018-07-25T14:04:03.044Z,3.50
2018-07-25T14:05:03.719Z,4.20
2018-07-25T14:06:04.459Z,3.70
2018-07-25T14:07:05.210Z,4.70
2018-07-25T14:08:05.951Z,4.20
2018-07-25T14:09:06.725Z,4.70
2018-07-25T14:11:07.771Z,4.10
2018-07-25T14:13:08.832Z,4.20
2018-07-25T14:14:09.551Z,5.20
2018-07-25T14:15:12.056Z,4.50
2018-07-25T14:16:12.825Z,4.30
2018-07-25T14:17:13.640Z,4.50
2018-07-25T14:18:14.453Z,4.40
2018-07-25T14:19:15.242Z,4.80
2018-07-25T14:20:16.671Z,4.70
2018-07-25T14:21:17.393Z,4.80
2018-07-25T14:22:19.002Z,4.50
2018-07-25T14:23:19.823Z,4.40
2018-07-25T14:24:21.040Z,4.90
2018-07-25T14:25:21.896Z,4.50
2018-07-25T14:26:22.632Z,5.20
2018-07-25T14:27:23.324Z,6.60
2018-07-25T14:28:24.123Z,4.90
2018-07-25T14:29:24.936Z,4.90
2018-07-25T14:30:25.722Z,4.60
2018-07-25T14:31:26.506Z,4.90
2018-07-25T14:32:27.234Z,4.90
2018-07-25T14:33:28.024Z,4.70
2018-07-25T14:34:29.469Z,4.90
2018-07-25T14:35:30.271Z,4.80
2018-07-25T14:36:30.985Z,4.90
2018-07-25T14:38:32.528Z,4.60
2018-07-25T14:39:33.255Z,5.00
2018-07-25T14:40:34.024Z,5.10
2018-07-25T14:41:34.759Z,4.60
2018-07-25T14:42:35.495Z,5.20
2018-07-25T14:43:36.240Z,4.70
2018-07-25T14:44:36.968Z,5.30
2018-07-25T14:45:37.664Z,4.90
2018-07-25T14:46:38.440Z,5.10
2018-07-25T14:47:39.193Z,7.40
2018-07-25T14:48:39.960Z,4.80
2018-07-25T14:49:40.857Z,4.70
2018-07-25T14:50:41.529Z,4.80
2018-07-25T14:51:42.211Z,5.00
2018-07-25T14:52:42.951Z,5.70
2018-07-25T14:53:43.679Z,5.20
2018-07-25T14:54:44.426Z,4.90
2018-07-25T14:55:45.162Z,6.30
2018-07-25T14:56:45.903Z,4.70
2018-07-25T14:57:46.735Z,4.90
2018-07-25T14:58:48.200Z,5.20
2018-07-25T14:59:49.492Z,4.70
2018-07-25T15:00:50.238Z,4.70
2018-07-25T15:01:50.967Z,5.30
2018-07-25T15:02:51.860Z,6.00
2018-07-25T15:03:52.582Z,4.90
2018-07-25T15:04:53.423Z,5.10
2018-07-25T15:05:54.899Z,5.50
2018-07-25T15:06:55.607Z,4.80
2018-07-25T15:07:56.376Z,4.90
2018-07-25T15:08:57.137Z,5.30
2018-07-25T15:09:57.857Z,5.90
2018-07-25T15:10:58.617Z,5.50
2018-07-25T15:11:59.458Z,6.70
2018-07-25T15:13:00.156Z,5.10
2018-07-25T15:14:00.879Z,7.00
2018-07-25T15:15:02.252Z,6.20
2018-07-25T15:16:03.295Z,5.80
2018-07-25T15:17:04.048Z,5.30
2018-07-25T15:18:04.803Z,5.10
2018-07-25T15:19:05.512Z,5.10
2018-07-25T15:20:06.279Z,4.80
2018-07-25T15:21:07.044Z,5.10
2018-07-25T15:22:07.767Z,5.40
2018-07-25T15:23:08.629Z,4.90
2018-07-25T15:24:09.360Z,5.20
2018-07-25T15:25:10.025Z,5.30
2018-07-25T15:26:10.738Z,5.20
2018-07-25T15:27:11.488Z,4.80
2018-07-25T15:28:12.291Z,5.60
2018-07-25T15:29:13.197Z,4.60
2018-07-25T15:30:13.905Z,4.50
2018-07-25T15:31:14.648Z,5.20
2018-07-25T15:32:15.374Z,4.80
2018-07-25T15:33:16.097Z,4.90
2018-07-25T15:34:16.855Z,5.20
2018-07-25T15:35:17.620Z,5.40
2018-07-25T15:36:18.441Z,5.20
2018-07-25T15:37:19.150Z,4.90
2018-07-25T15:38:19.956Z,4.80
2018-07-25T15:39:20.746Z,6.50
2018-07-25T15:40:23.048Z,5.20
2018-07-25T15:41:23.725Z,5.00
2018-07-25T15:42:24.846Z,7.40
2018-07-25T15:43:27.478Z,4.60
2018-07-25T15:44:28.282Z,5.40
2018-07-25T15:45:28.960Z,4.90
2018-07-25T15:46:30.083Z,4.70
2018-07-25T15:47:30.821Z,4.30
2018-07-25T15:48:32.062Z,4.60
2018-07-25T15:49:32.726Z,4.50
2018-07-25T15:50:33.469Z,4.50
2018-07-25T15:51:34.220Z,4.50
2018-07-25T15:52:34.930Z,4.50
2018-07-25T15:53:35.605Z,4.40
2018-07-25T15:54:36.335Z,4.50
2018-07-25T15:55:37.088Z,5.00
2018-07-25T15:56:37.846Z,5.10
2018-07-25T15:57:38.617Z,6.30
2018-07-25T15:58:39.360Z,4.50
2018-07-25T15:59:40.177Z,4.60
2018-07-25T16:00:40.865Z,4.90
2018-07-25T16:01:41.625Z,5.30
2018-07-25T16:02:42.317Z,4.60
2018-07-25T16:03:43.011Z,4.80
2018-07-25T16:04:43.763Z,4.50
2018-07-25T16:05:44.588Z,4.60
2018-07-25T16:06:45.300Z,5.70
2018-07-25T16:07:47.857Z,4.60
2018-07-25T16:08:48.678Z,5.80
2018-07-25T16:09:49.518Z,4.60
2018-07-25T16:10:50.251Z,4.50
2018-07-25T16:11:50.915Z,4.90
2018-07-25T16:12:51.698Z,4.90
2018-07-25T16:13:52.571Z,5.00
2018-07-25T16:14:53.412Z,4.60
2018-07-25T16:15:54.151Z,4.30
2018-07-25T16:16:54.872Z,4.90
2018-07-25T16:17:57.078Z,4.70
2018-07-25T16:18:59.263Z,4.90
2018-07-25T16:20:00.131Z,4.60
2018-07-25T16:21:00.784Z,4.50
2018-07-25T16:22:04.159Z,4.30
2018-07-25T16:23:05.186Z,4.30
2018-07-25T16:24:05.932Z,4.60
2018-07-25T16:25:06.634Z,4.20
2018-07-25T16:26:07.316Z,4.30
2018-07-25T16:27:07.974Z,6.10
2018-07-25T16:28:08.703Z,4.30
2018-07-25T16:29:09.435Z,4.00
2018-07-25T16:30:10.252Z,4.70
2018-07-25T16:31:11.271Z,3.90
2018-07-25T16:32:12.015Z,4.60
2018-07-25T16:33:12.748Z,4.40
2018-07-25T16:34:13.489Z,4.50
2018-07-25T16:35:14.465Z,4.30
2018-07-25T16:36:18.508Z,4.30
2018-07-25T16:37:19.239Z,4.30
2018-07-25T16:38:19.978Z,4.30
2018-07-25T16:39:20.921Z,4.20
2018-07-25T16:41:21.923Z,4.50
2018-07-25T16:42:22.746Z,4.40
2018-07-25T16:43:23.619Z,4.50
2018-07-25T16:44:24.391Z,4.20
2018-07-25T16:45:25.132Z,4.30
2018-07-25T16:46:25.995Z,4.20
2018-07-25T16:47:26.894Z,4.30
2018-07-25T16:48:27.648Z,5.00
2018-07-25T16:49:28.450Z,5.00
2018-07-25T16:50:29.176Z,4.10
2018-07-25T16:51:29.941Z,5.60
2018-07-25T16:52:31.100Z,5.50
2018-07-25T16:53:31.953Z,4.20
2018-07-25T16:54:33.883Z,4.00
2018-07-25T16:55:34.629Z,4.30
2018-07-25T16:56:35.464Z,4.30
2018-07-25T16:57:36.179Z,4.90
2018-07-25T16:58:36.899Z,6.50
2018-07-25T16:59:37.882Z,4.00
2018-07-25T17:00:38.924Z,4.40
2018-07-25T17:01:39.828Z,5.40
2018-07-25T17:02:40.594Z,5.70
2018-07-25T17:03:41.403Z,4.10
2018-07-25T17:04:42.154Z,4.70
2018-07-25T17:05:42.974Z,4.50
2018-07-25T17:06:43.735Z,5.50
2018-07-25T17:07:44.605Z,4.20
2018-07-25T17:08:45.324Z,4.20
2018-07-25T17:09:46.168Z,4.90
2018-07-25T17:10:46.844Z,4.20
2018-07-25T17:11:50.334Z,5.40
2018-07-25T17:12:51.122Z,5.40
2018-07-25T17:13:51.843Z,4.70
2018-07-25T17:14:52.988Z,4.10
2018-07-25T17:15:53.794Z,4.40
2018-07-25T17:17:07.124Z,4.30
2018-07-25T17:18:08.597Z,4.20
2018-07-25T17:19:09.317Z,4.20
2018-07-25T17:20:10.626Z,3.80
2018-07-25T17:21:12.374Z,7.20
2018-07-25T17:22:13.236Z,4.00
2018-07-25T17:23:14.099Z,3.90
2018-07-25T17:24:14.857Z,4.10
2018-07-25T17:25:15.704Z,4.00
2018-07-25T17:26:16.559Z,4.40
2018-07-25T17:27:17.458Z,3.90
2018-07-25T17:28:18.247Z,4.00
2018-07-25T17:29:19.108Z,4.20
2018-07-25T17:30:19.874Z,5.80
2018-07-25T17:32:20.997Z,4.70
2018-07-25T17:33:21.742Z,4.50
2018-07-25T17:34:22.454Z,4.50
2018-07-25T17:35:24.591Z,4.40
2018-07-25T17:36:25.369Z,4.10
2018-07-25T17:37:26.099Z,4.70
2018-07-25T17:38:26.843Z,4.10
2018-07-25T17:39:27.594Z,3.60
2018-07-25T17:40:28.289Z,4.00
2018-07-25T17:41:29.172Z,4.60
2018-07-25T17:42:29.857Z,5.70
2018-07-25T17:43:30.574Z,4.80
2018-07-25T17:44:31.319Z,4.10
2018-07-25T17:45:32.047Z,5.60
2018-07-25T17:46:32.801Z,6.20
2018-07-25T17:47:33.540Z,4.30
2018-07-25T17:48:34.202Z,4.20
2018-07-25T17:49:34.992Z,4.80
2018-07-25T17:50:35.782Z,4.20
2018-07-25T17:52:37.029Z,4.10
2018-07-25T17:53:37.829Z,3.80
2018-07-25T17:54:38.581Z,4.20
2018-07-25T17:55:39.278Z,4.00
2018-07-25T17:56:39.989Z,4.30
2018-07-25T17:57:46.659Z,4.10
2018-07-25T17:58:51.553Z,4.00
2018-07-25T17:59:57.443Z,4.00
2018-07-25T18:01:14.988Z,5.00
2018-07-25T18:02:53.960Z,5.00
2018-07-25T18:04:55.693Z,4.20
2018-07-25T18:05:56.415Z,4.00
2018-07-25T18:06:57.205Z,4.20
2018-07-25T18:07:58.007Z,4.10
2018-07-25T18:08:58.779Z,4.00
2018-07-25T18:09:59.558Z,4.00
2018-07-25T18:11:00.260Z,3.80
2018-07-25T18:12:00.947Z,3.80
2018-07-25T18:13:01.706Z,3.80
2018-07-25T18:14:02.410Z,4.20
2018-07-25T18:15:03.142Z,6.60
2018-07-25T18:16:03.878Z,4.80
2018-07-25T18:17:04.651Z,3.60
2018-07-25T18:18:05.455Z,3.70
2018-07-25T18:19:06.222Z,4.40
2018-07-25T18:20:07.079Z,4.30
2018-07-25T18:21:07.885Z,4.00
2018-07-25T18:22:08.668Z,3.90
2018-07-25T18:23:09.435Z,4.00
2018-07-25T18:24:10.204Z,3.70
2018-07-25T18:25:10.999Z,3.80
2018-07-25T18:26:11.713Z,3.70
2018-07-25T18:27:12.477Z,4.60
2018-07-25T18:28:13.245Z,7.00
2018-07-25T18:29:14.051Z,5.80
2018-07-25T18:30:15.525Z,5.40
2018-07-25T18:31:16.205Z,6.00
2018-07-25T18:32:16.913Z,3.90
2018-07-25T18:33:17.622Z,3.70
2018-07-25T18:34:18.452Z,5.40
2018-07-25T18:35:19.202Z,3.80
2018-07-25T18:36:19.931Z,4.40
2018-07-25T18:37:20.692Z,3.90
2018-07-25T18:38:21.392Z,3.70
2018-07-25T18:39:22.178Z,3.80
2018-07-25T18:40:22.920Z,3.70
2018-07-25T18:41:23.783Z,4.00
2018-07-25T18:42:24.514Z,3.50
2018-07-25T18:43:25.213Z,3.40
2018-07-25T18:44:25.939Z,3.10
2018-07-25T18:45:26.668Z,3.50
2018-07-25T18:46:27.405Z,3.10
2018-07-25T18:47:28.191Z,4.40
2018-07-25T18:48:28.925Z,3.80
2018-07-25T18:50:29.933Z,3.00
2018-07-25T18:51:30.706Z,2.90
2018-07-25T18:52:31.450Z,3.00
2018-07-25T18:53:32.159Z,2.70
2018-07-25T18:54:32.857Z,3.60
2018-07-25T18:55:33.555Z,3.40
2018-07-25T18:57:34.588Z,3.10
2018-07-25T18:58:35.280Z,3.70
2018-07-25T18:59:35.992Z,4.00
2018-07-25T19:00:36.676Z,3.00
2018-07-25T19:01:37.340Z,2.90
2018-07-25T19:02:38.025Z,3.20
2018-07-25T19:03:38.887Z,3.20
2018-07-25T19:04:40.158Z,3.20
2018-07-25T19:05:40.826Z,6.20
2018-07-25T19:06:41.482Z,3.40
2018-07-25T19:07:42.137Z,3.20
2018-07-25T19:08:42.840Z,3.80
2018-07-25T19:10:43.764Z,3.20
2018-07-25T19:11:44.443Z,4.40
2018-07-25T19:12:45.118Z,4.70
2018-07-25T19:13:45.769Z,3.40
2018-07-25T19:14:46.435Z,3.50
2018-07-25T19:15:47.140Z,4.90
2018-07-25T19:17:48.095Z,4.50
2018-07-25T19:18:48.818Z,6.60
2018-07-25T19:19:49.450Z,4.20
2018-07-25T19:20:50.180Z,5.60
2018-07-25T19:21:50.905Z,4.80
2018-07-25T19:22:51.610Z,4.30
2018-07-25T19:23:52.320Z,4.30
2018-07-25T19:24:53.106Z,5.70
2018-07-25T19:25:53.927Z,4.30
2018-07-25T19:27:54.893Z,4.10
2018-07-25T19:28:55.603Z,4.30
2018-07-25T19:29:56.285Z,4.10
2018-07-25T19:31:57.365Z,4.20
2018-07-25T19:32:58.132Z,4.50
2018-07-25T19:33:58.759Z,4.80
2018-07-25T19:34:59.445Z,5.20
2018-07-25T19:36:00.148Z,4.90
2018-07-25T19:37:00.935Z,4.70
